Elton, WI (54430)

9:20 PM CDT on August 28, 2014 (GMT -0500)
Langlade County | Change Station
CLOSE
Current Station
Airport
Location: Antigo,
Elevation: 1522 ft
Nearby Weather Stations

Elev 1522 ft 45.16 °N, 89.11 °W | Updated 25 minutes ago

Overcast
Overcast
61 °F
Feels Like 61 °F
N
8
Wind Variable Wind from South

Today
High -- | Low -- °F
--% Chance of Precip.
Yesterday
High -- | Low -- °F
Precip. -- in
6:12 AM 7:40 PM
Waxing Crescent, 11% visible
Pressure 30.09 in
Visibility 10.0 miles
Clouds Overcast 3500 ft
Dew Point 59 °F
Humidity 95%
Rainfall 0.00 in
Snow Depth Not available.
UV 0 out of 12
Pollen 8.90 out of 12
Air Quality Not available.
Flu Activity Not available.
METAR KAIG 290155Z AUTO 17007KT 10SM OVC035 16/15 A3009 RMK AO2 T01600152

More Conditions Fewer Conditions

Pressure 30.09 in
Visibility 10.0 miles
Clouds Overcast 3500 ft
Dew Point 59 °F
Humidity 95%
Rainfall 0.00 in
Snow Depth Not available.
UV 0 out of 12
Pollen 8.90 out of 12
Air Quality Not available.
Flu Activity Not available.
METAR KAIG 290155Z AUTO 17007KT 10SM OVC035 16/15 A3009 RMK AO2 T01600152

More Conditions Fewer Conditions

10-Day Weather Forecast

Almanac

Astronomy

Aug. 28, 2014 Rise Set
Actual Time 6:12 AM CDT 7:40 PM CDT
Civil Twilight 5:41 AM CDT 8:10 PM CDT
Nautical Twilight 5:04 AM CDT 8:47 PM CDT
Astronomical Twilight 4:24 AM CDT 9:27 PM CDT
Moon 9:14 AM CDT (8/28) 8:53 PM CDT (8/28)
Length of Visible Light 14h 28m
Length of Day
13h 27m
Tomorrow will be 2m 59s shorter.
Waxing Crescent, 11% of the Moon is Illuminated
Today
Waxing Crescent
Sep 2
First Quarter
Sep 8
Full
Sep 15
Last Quarter
Sep 24
New

Today's Extremes

State Highs State Lows

Community

WunderPhotos

Upload Photos

1,748,124 photos uploaded!

Nearby

Snow Depth

Station Depth Elevation
No new snow has been reported.

Earthquake Activity

City Distance Mag. Time & Date
No recent earthquake activity has been reported nearby.
Minimum magnitude displayed is 2.5.

Coastal Water Temperatures

Place Temperature
No Stations Reporting

Nearby Weather Stations